Terminal Aerodrome Forecast
Issued by NWS Melbourne, FL

Home | Current Version | Previous Version | Text Only | Print | Product List | Glossary On
Versions: 1 2 3 4 5 6 7 8 9 10 11 12 13
000
FTUS42 KMLB 302324
TAFVRB
TAF
KVRB 302324Z 3100/3124 13005KT P6SM SKC
     FM310200 VRB03KT P6SM SKC
     FM311500 31008KT P6SM FEW050 SCT250
     FM311900 02008KT P6SM FEW050 SCT250=

USA.gov is the U.S. government's official web portal to all federal, state and local government web resources and services.